createdAt,value
2023-05-01T00:01:53.658Z,4.10
2023-05-01T00:04:22.706Z,4.30
2023-05-01T00:06:50.935Z,4.60
2023-05-01T00:09:18.999Z,4.40
2023-05-01T00:11:47.130Z,5.20
2023-05-01T00:14:15.431Z,4.90
2023-05-01T00:16:43.549Z,4.50
2023-05-01T00:19:13.585Z,5.30
2023-05-01T00:21:41.657Z,5.50
2023-05-01T00:24:09.658Z,5.30
2023-05-01T00:26:38.038Z,4.50
2023-05-01T00:29:06.068Z,5.30
2023-05-01T00:31:34.104Z,4.90
2023-05-01T00:34:02.362Z,4.90
2023-05-01T00:36:31.826Z,4.30
2023-05-01T00:38:59.958Z,4.90
2023-05-01T00:41:27.965Z,4.90
2023-05-01T00:43:56.242Z,4.80
2023-05-01T00:46:25.435Z,5.30
2023-05-01T00:48:53.826Z,5.20
2023-05-01T00:51:22.490Z,5.30
2023-05-01T00:53:52.055Z,4.90
2023-05-01T00:56:21.570Z,4.80
2023-05-01T00:58:54.076Z,4.40
2023-05-01T01:01:22.322Z,5.00
2023-05-01T01:03:54.541Z,5.00
2023-05-01T01:07:02.787Z,4.50
2023-05-01T01:09:39.569Z,4.70
2023-05-01T01:12:29.185Z,5.10
2023-05-01T01:15:30.429Z,4.90
2023-05-01T01:18:23.923Z,5.60
2023-05-01T01:20:54.825Z,4.70
2023-05-01T01:23:28.843Z,5.70
2023-05-01T01:26:13.796Z,5.50
2023-05-01T01:29:19.774Z,5.10
2023-05-01T01:31:54.004Z,5.60
2023-05-01T01:34:33.115Z,5.60
2023-05-01T01:37:03.952Z,5.10
2023-05-01T01:40:05.122Z,5.70
2023-05-01T01:42:40.072Z,5.50
2023-05-01T01:47:56.276Z,5.90
2023-05-01T01:50:27.811Z,5.40
2023-05-01T01:53:00.272Z,6.50
2023-05-01T01:55:32.832Z,6.40
2023-05-01T01:58:04.146Z,5.90
2023-05-01T02:00:32.870Z,6.00
2023-05-01T02:03:02.179Z,6.50
2023-05-01T02:05:33.183Z,5.50
2023-05-01T02:08:04.352Z,6.60
2023-05-01T02:10:34.429Z,6.40
2023-05-01T02:13:03.749Z,6.70
2023-05-01T02:15:34.138Z,6.00
2023-05-01T02:18:05.228Z,6.40
2023-05-01T02:20:34.043Z,5.70
2023-05-01T02:23:05.193Z,6.40
2023-05-01T02:25:35.697Z,6.50
2023-05-01T02:28:13.601Z,6.80
2023-05-01T02:30:42.912Z,6.20
2023-05-01T02:33:11.223Z,6.00
2023-05-01T02:35:49.869Z,6.50
2023-05-01T02:38:18.742Z,6.50
2023-05-01T02:40:52.389Z,7.40
2023-05-01T02:43:22.896Z,6.90
2023-05-01T02:45:53.002Z,5.80
2023-05-01T02:48:27.613Z,7.00
2023-05-01T02:50:57.065Z,7.00
2023-05-01T02:53:25.244Z,6.40
2023-05-01T02:55:57.463Z,6.40
2023-05-01T02:58:25.986Z,6.30
2023-05-01T03:00:54.107Z,7.10
2023-05-01T03:03:22.346Z,6.50
2023-05-01T03:05:50.487Z,6.90
2023-05-01T03:08:18.444Z,7.00
2023-05-01T03:10:46.508Z,6.50
2023-05-01T03:13:14.649Z,7.10
2023-05-01T03:15:43.379Z,6.40
2023-05-01T03:18:13.141Z,6.30
2023-05-01T03:20:41.685Z,6.20
2023-05-01T03:23:10.164Z,6.50
2023-05-01T03:25:38.278Z,6.40
2023-05-01T03:28:06.349Z,8.30
2023-05-01T03:30:35.502Z,9.50
2023-05-01T03:33:04.094Z,8.90
2023-05-01T03:35:32.688Z,7.40
2023-05-01T03:38:00.892Z,6.90
2023-05-01T03:40:47.601Z,6.70
2023-05-01T03:43:34.662Z,6.40
2023-05-01T03:46:06.152Z,5.30
2023-05-01T03:48:34.463Z,5.90
2023-05-01T03:51:03.393Z,6.70
2023-05-01T03:53:32.600Z,7.70
2023-05-01T03:56:01.269Z,7.20
2023-05-01T03:58:29.323Z,7.20
2023-05-01T04:01:00.811Z,7.40
2023-05-01T04:03:29.143Z,6.20
2023-05-01T04:05:58.131Z,6.80
2023-05-01T04:08:26.265Z,6.50
2023-05-01T04:10:54.328Z,5.50
2023-05-01T04:13:22.486Z,5.60
2023-05-01T04:15:50.985Z,5.70
2023-05-01T04:18:19.398Z,5.50
2023-05-01T04:20:47.517Z,5.40
2023-05-01T04:23:15.509Z,5.50
2023-05-01T04:25:43.634Z,5.50
2023-05-01T04:28:15.703Z,5.50
2023-05-01T04:30:43.852Z,5.20
2023-05-01T04:33:12.200Z,4.80
2023-05-01T04:35:41.962Z,5.10
2023-05-01T04:38:12.500Z,5.10
2023-05-01T04:40:41.875Z,5.40
2023-05-01T04:43:11.497Z,5.60
2023-05-01T04:45:39.890Z,5.60
2023-05-01T04:48:08.343Z,5.60
2023-05-01T04:50:37.749Z,5.20
2023-05-01T04:53:05.943Z,5.40
2023-05-01T04:55:34.262Z,5.60
2023-05-01T04:58:12.910Z,4.60
2023-05-01T05:00:41.501Z,4.90
2023-05-01T05:03:12.808Z,4.70
2023-05-01T05:05:40.897Z,5.20
2023-05-01T05:08:10.363Z,5.40
2023-05-01T05:10:41.006Z,4.80
2023-05-01T05:13:20.878Z,5.10
2023-05-01T05:15:54.738Z,5.10
2023-05-01T05:18:23.826Z,4.90
2023-05-01T05:20:52.286Z,5.90
2023-05-01T05:23:21.465Z,5.00
2023-05-01T05:25:49.581Z,5.20
2023-05-01T05:28:18.541Z,5.30
2023-05-01T05:30:47.186Z,5.10
2023-05-01T05:33:17.396Z,5.30
2023-05-01T05:35:45.954Z,5.70
2023-05-01T05:38:14.473Z,5.40
2023-05-01T05:40:43.704Z,5.00
2023-05-01T05:43:12.953Z,5.60
2023-05-01T05:45:43.969Z,6.00
2023-05-01T05:48:14.720Z,4.70
2023-05-01T05:50:42.736Z,5.50
2023-05-01T05:53:12.053Z,5.60
2023-05-01T05:55:43.559Z,5.60
2023-05-01T05:58:11.792Z,5.30
2023-05-01T06:00:40.057Z,6.20
2023-05-01T06:03:11.140Z,5.50
2023-05-01T06:05:39.896Z,5.90
2023-05-01T06:08:10.380Z,5.30
2023-05-01T06:10:41.914Z,6.10
2023-05-01T06:13:14.042Z,6.00
2023-05-01T06:15:45.390Z,6.10
2023-05-01T06:18:13.720Z,5.80
2023-05-01T06:20:42.775Z,5.50
2023-05-01T06:23:11.238Z,5.80
2023-05-01T06:25:49.154Z,5.50
2023-05-01T06:28:17.707Z,5.50
2023-05-01T06:30:45.732Z,5.70
2023-05-01T06:33:15.999Z,6.10
2023-05-01T06:35:44.840Z,6.20
2023-05-01T06:38:13.012Z,5.80
2023-05-01T06:40:41.763Z,5.50
2023-05-01T06:43:10.040Z,5.00
2023-05-01T06:45:40.059Z,5.70
2023-05-01T06:48:08.824Z,5.50
2023-05-01T06:50:38.476Z,5.70
2023-05-01T06:53:06.645Z,5.90
2023-05-01T06:55:35.946Z,5.10
2023-05-01T06:58:12.711Z,4.90
2023-05-01T07:00:52.488Z,5.80
2023-05-01T07:03:21.370Z,4.70
2023-05-01T07:05:49.426Z,4.40
2023-05-01T07:08:18.909Z,5.30
2023-05-01T07:10:47.420Z,5.10
2023-05-01T07:13:15.987Z,5.50
2023-05-01T07:15:43.996Z,5.00
2023-05-01T07:18:12.738Z,5.80
2023-05-01T07:20:41.015Z,6.00
2023-05-01T07:23:11.228Z,5.50
2023-05-01T07:25:45.560Z,5.60
2023-05-01T07:28:13.785Z,6.00
2023-05-01T07:30:42.013Z,5.60
2023-05-01T07:33:10.159Z,5.00
2023-05-01T07:35:38.916Z,5.40
2023-05-01T07:38:10.302Z,5.50
2023-05-01T07:40:39.960Z,5.90
2023-05-01T07:43:11.253Z,5.50
2023-05-01T07:45:40.035Z,5.40
2023-05-01T07:48:09.698Z,5.50
2023-05-01T07:50:39.170Z,5.90
2023-05-01T07:53:08.044Z,5.30
2023-05-01T07:55:36.194Z,5.40
2023-05-01T07:58:04.762Z,5.50
2023-05-01T08:00:33.136Z,5.10
2023-05-01T08:03:03.799Z,5.50
2023-05-01T08:05:32.351Z,5.00
2023-05-01T08:08:00.621Z,5.00
2023-05-01T08:10:29.080Z,5.20
2023-05-01T08:12:57.354Z,5.00
2023-05-01T08:15:25.472Z,4.80
2023-05-01T08:17:53.761Z,4.70
2023-05-01T08:20:22.100Z,5.60
2023-05-01T08:22:50.772Z,5.10
2023-05-01T08:25:19.368Z,4.80
2023-05-01T08:27:49.437Z,4.20
2023-05-01T08:30:17.566Z,5.10
2023-05-01T08:32:45.911Z,5.70
2023-05-01T08:35:14.024Z,4.80
2023-05-01T08:37:42.363Z,4.60
2023-05-01T08:40:11.989Z,4.60
2023-05-01T08:42:40.649Z,4.40
2023-05-01T08:45:09.579Z,5.10
2023-05-01T08:47:39.760Z,4.50
2023-05-01T08:50:12.040Z,4.40
2023-05-01T08:52:44.384Z,4.20
2023-05-01T08:55:14.875Z,4.60
2023-05-01T08:57:45.888Z,4.30
2023-05-01T09:00:25.483Z,4.00
2023-05-01T09:02:53.578Z,4.10
2023-05-01T09:05:22.087Z,4.00
2023-05-01T09:07:50.671Z,4.50
2023-05-01T09:10:20.308Z,4.30
2023-05-01T09:12:52.818Z,4.70
2023-05-01T09:15:21.622Z,3.20
2023-05-01T09:17:50.856Z,3.60
2023-05-01T09:20:20.107Z,3.90
2023-05-01T09:22:48.740Z,3.20
2023-05-01T09:25:17.420Z,3.50
2023-05-01T09:27:46.249Z,3.30
2023-05-01T09:30:35.502Z,7.40
2023-05-01T09:33:19.650Z,3.90
2023-05-01T09:35:53.898Z,3.20
2023-05-01T09:38:24.840Z,3.30
2023-05-01T09:40:56.904Z,9.50
2023-05-01T09:43:30.881Z,5.40
2023-05-01T09:46:13.522Z,3.70
2023-05-01T09:48:41.728Z,4.50
2023-05-01T09:51:33.241Z,3.60
2023-05-01T09:54:04.632Z,3.20
2023-05-01T09:56:34.260Z,3.40
2023-05-01T09:59:17.267Z,2.80
2023-05-01T10:01:46.797Z,3.00
2023-05-01T10:04:15.750Z,3.00
2023-05-01T10:06:43.908Z,2.80
2023-05-01T10:09:27.907Z,3.10
2023-05-01T10:11:57.933Z,2.80
2023-05-01T10:14:28.213Z,2.50
2023-05-01T10:17:07.455Z,2.70
2023-05-01T10:19:35.471Z,2.60
2023-05-01T10:22:03.603Z,2.30
2023-05-01T10:24:32.218Z,2.40
2023-05-01T10:27:05.641Z,2.40
2023-05-01T10:29:38.106Z,2.40
2023-05-01T10:32:08.590Z,2.80
2023-05-01T10:34:42.431Z,2.70
2023-05-01T10:37:28.896Z,2.20
2023-05-01T10:39:57.126Z,2.50
2023-05-01T10:42:26.334Z,2.60
2023-05-01T10:45:30.619Z,2.90
2023-05-01T10:47:59.305Z,2.50
2023-05-01T10:50:27.556Z,2.60
2023-05-01T10:53:15.738Z,2.40
2023-05-01T10:55:50.010Z,2.40
2023-05-01T10:58:36.883Z,1.70
2023-05-01T11:01:32.547Z,2.70
2023-05-01T11:04:08.114Z,2.50
2023-05-01T11:06:38.148Z,2.40
2023-05-01T11:10:02.304Z,2.40
2023-05-01T11:15:27.501Z,2.50
2023-05-01T11:17:56.378Z,2.30
2023-05-01T11:20:29.786Z,2.20
2023-05-01T11:22:58.382Z,2.10
2023-05-01T11:25:33.189Z,2.30
2023-05-01T11:28:03.439Z,2.20
2023-05-01T11:30:40.707Z,2.30
2023-05-01T11:33:10.627Z,2.10
2023-05-01T11:35:39.490Z,2.60
2023-05-01T11:38:18.780Z,2.10
2023-05-01T11:40:55.560Z,2.10
2023-05-01T11:43:23.804Z,2.10
2023-05-01T11:45:55.118Z,2.20
2023-05-01T11:48:23.645Z,2.10
2023-05-01T11:50:53.235Z,2.10
2023-05-01T11:53:21.513Z,2.50
2023-05-01T11:55:51.561Z,2.20
2023-05-01T11:58:32.402Z,2.30
2023-05-01T12:01:01.168Z,1.80
2023-05-01T12:03:40.414Z,2.10
2023-05-01T12:06:12.315Z,1.80
2023-05-01T12:08:47.518Z,2.20
2023-05-01T12:11:16.909Z,2.20
2023-05-01T12:13:47.925Z,2.20
2023-05-01T12:16:16.123Z,2.00
2023-05-01T12:18:44.723Z,2.30
2023-05-01T12:21:17.985Z,2.00
2023-05-01T12:23:46.674Z,2.10
2023-05-01T12:26:19.733Z,2.10
2023-05-01T12:28:58.825Z,2.00
2023-05-01T12:31:28.260Z,2.30
2023-05-01T12:33:58.473Z,2.00
2023-05-01T12:36:29.376Z,2.10
2023-05-01T12:39:06.204Z,2.00
2023-05-01T12:41:46.515Z,1.90
2023-05-01T12:44:26.274Z,2.10
2023-05-01T12:47:03.140Z,1.90
2023-05-01T12:49:32.771Z,2.00
2023-05-01T12:52:01.771Z,2.20
2023-05-01T12:54:32.004Z,1.90
2023-05-01T12:57:16.980Z,2.10
2023-05-01T12:59:48.545Z,2.30
2023-05-01T13:02:18.255Z,2.20
2023-05-01T13:04:50.139Z,1.90
2023-05-01T13:07:19.404Z,2.00
2023-05-01T13:10:01.065Z,1.80
2023-05-01T13:12:30.048Z,2.00
2023-05-01T13:15:00.316Z,2.20
2023-05-01T13:17:32.763Z,2.40
2023-05-01T13:20:05.264Z,2.10
2023-05-01T13:25:14.170Z,1.80
2023-05-01T13:27:47.325Z,2.00
2023-05-01T13:30:16.374Z,2.40
2023-05-01T13:32:46.604Z,2.20
2023-05-01T13:35:24.133Z,2.30
2023-05-01T13:37:53.146Z,5.20
2023-05-01T13:40:22.290Z,2.70
2023-05-01T13:42:52.920Z,4.90
2023-05-01T13:45:21.430Z,2.00
2023-05-01T13:47:50.913Z,2.00
2023-05-01T13:50:21.635Z,2.10
2023-05-01T13:52:49.839Z,1.90
2023-05-01T13:55:17.984Z,2.40
2023-05-01T13:57:46.259Z,2.10
2023-05-01T14:00:19.544Z,2.20
2023-05-01T14:02:49.361Z,2.60
2023-05-01T14:05:23.613Z,2.00
2023-05-01T14:07:57.759Z,2.50
2023-05-01T14:10:34.431Z,1.70
2023-05-01T14:13:05.507Z,1.90
2023-05-01T14:15:34.193Z,2.00
2023-05-01T14:18:06.946Z,1.70
2023-05-01T14:20:35.299Z,1.70
2023-05-01T14:23:05.803Z,1.90
2023-05-01T14:25:35.105Z,1.60
2023-05-01T14:28:09.916Z,1.80
2023-05-01T14:30:40.676Z,1.90
2023-05-01T14:33:11.781Z,2.20
2023-05-01T14:35:57.876Z,1.90
2023-05-01T14:38:27.548Z,2.00
2023-05-01T14:40:55.767Z,2.00
2023-05-01T14:43:27.553Z,2.70
2023-05-01T14:45:55.822Z,2.50
2023-05-01T14:48:26.118Z,1.90
2023-05-01T14:50:55.152Z,2.10
2023-05-01T14:53:23.669Z,1.80
2023-05-01T14:55:52.369Z,1.80
2023-05-01T14:58:20.778Z,2.00
2023-05-01T15:00:49.602Z,2.00
2023-05-01T15:03:18.292Z,1.80
2023-05-01T15:05:46.658Z,1.80
2023-05-01T15:08:14.705Z,1.90
2023-05-01T15:10:44.194Z,2.30
2023-05-01T15:13:13.471Z,1.70
2023-05-01T15:15:41.926Z,2.00
2023-05-01T15:18:10.040Z,1.70
2023-05-01T15:20:38.418Z,2.00
2023-05-01T15:23:06.961Z,1.90
2023-05-01T15:25:35.726Z,2.00
2023-05-01T15:28:03.943Z,1.70
2023-05-01T15:30:32.203Z,2.00
2023-05-01T15:33:01.306Z,1.80
2023-05-01T15:35:31.723Z,1.70
2023-05-01T15:37:59.817Z,1.90
2023-05-01T15:40:28.089Z,1.90
2023-05-01T15:42:56.590Z,1.60
2023-05-01T15:45:24.801Z,1.80
2023-05-01T15:47:58.709Z,1.80
2023-05-01T15:50:27.822Z,2.20
2023-05-01T15:52:57.230Z,1.70
2023-05-01T15:55:25.427Z,1.70
2023-05-01T15:57:54.988Z,2.20
2023-05-01T16:00:23.166Z,2.30
2023-05-01T16:02:51.506Z,1.90
2023-05-01T16:05:24.765Z,2.00
2023-05-01T16:07:56.242Z,2.00
2023-05-01T16:10:25.567Z,1.90
2023-05-01T16:12:53.760Z,2.10
2023-05-01T16:15:22.845Z,2.00
2023-05-01T16:17:51.996Z,2.00
2023-05-01T16:20:21.078Z,2.20
2023-05-01T16:22:49.366Z,2.10
2023-05-01T16:25:17.867Z,2.20
2023-05-01T16:27:47.424Z,2.50
2023-05-01T16:30:16.321Z,2.00
2023-05-01T16:32:45.100Z,1.80
2023-05-01T16:35:28.009Z,2.10
2023-05-01T16:37:56.269Z,2.10
2023-05-01T16:40:24.313Z,2.70
2023-05-01T16:42:54.190Z,2.40
2023-05-01T16:45:22.236Z,2.40
2023-05-01T16:47:51.948Z,2.50
2023-05-01T16:50:24.417Z,3.10
2023-05-01T16:52:52.611Z,2.80
2023-05-01T16:55:21.327Z,2.60
2023-05-01T16:57:49.520Z,2.80
2023-05-01T17:00:18.522Z,2.80
2023-05-01T17:02:49.855Z,2.80
2023-05-01T17:05:18.242Z,2.70
2023-05-01T17:07:46.714Z,2.90
2023-05-01T17:10:14.798Z,3.10
2023-05-01T17:12:43.818Z,2.90
2023-05-01T17:15:12.034Z,3.00
2023-05-01T17:17:40.264Z,3.50
2023-05-01T17:20:09.140Z,3.40
2023-05-01T17:22:37.094Z,3.30
2023-05-01T17:25:06.209Z,3.50
2023-05-01T17:27:34.608Z,3.40
2023-05-01T17:30:04.692Z,3.40
2023-05-01T17:32:37.007Z,26.00
2023-05-01T17:35:06.244Z,4.20
2023-05-01T17:37:34.278Z,3.70
2023-05-01T17:40:04.204Z,4.00
2023-05-01T17:42:33.073Z,4.20
2023-05-01T17:45:01.272Z,4.40
2023-05-01T17:47:29.804Z,4.90
2023-05-01T17:50:00.244Z,4.60
2023-05-01T17:52:28.604Z,3.90
2023-05-01T17:54:57.317Z,3.40
2023-05-01T17:57:25.236Z,3.50
2023-05-01T17:59:53.364Z,3.60
2023-05-01T18:02:22.019Z,7.50
2023-05-01T18:04:51.162Z,5.30
2023-05-01T18:07:19.383Z,5.40
2023-05-01T18:09:47.866Z,5.00
2023-05-01T18:12:16.222Z,6.30
2023-05-01T18:14:44.679Z,5.60
2023-05-01T18:17:14.034Z,6.10
2023-05-01T18:19:42.335Z,5.80
2023-05-01T18:22:10.320Z,6.10
2023-05-01T18:24:38.442Z,7.60
2023-05-01T18:27:06.616Z,6.30
2023-05-01T18:29:34.648Z,6.20
2023-05-01T18:32:03.827Z,5.00
2023-05-01T18:34:33.338Z,5.10
2023-05-01T18:37:02.627Z,5.20
2023-05-01T18:39:30.638Z,5.40
2023-05-01T18:41:58.842Z,5.30
2023-05-01T18:44:26.945Z,5.00
2023-05-01T18:46:55.077Z,4.50
2023-05-01T18:49:25.021Z,4.20
2023-05-01T18:51:53.132Z,4.00
2023-05-01T18:54:22.935Z,4.30
2023-05-01T18:56:51.047Z,4.60
2023-05-01T18:59:21.751Z,3.90
2023-05-01T19:01:51.053Z,4.50
2023-05-01T19:04:19.529Z,6.50
2023-05-01T19:06:47.774Z,7.40
2023-05-01T19:09:16.411Z,9.10
2023-05-01T19:11:44.470Z,8.90
2023-05-01T19:14:12.777Z,8.10
2023-05-01T19:16:40.946Z,9.30
2023-05-01T19:19:09.701Z,9.20
2023-05-01T19:21:38.114Z,8.70
2023-05-01T19:24:07.447Z,8.00
2023-05-01T19:26:36.195Z,8.00
2023-05-01T19:29:04.726Z,8.90
2023-05-01T19:31:33.122Z,9.10
2023-05-01T19:34:01.177Z,12.30
2023-05-01T19:36:29.189Z,7.70
2023-05-01T19:38:57.138Z,6.40
2023-05-01T19:41:25.200Z,7.30
2023-05-01T19:43:53.321Z,7.00
2023-05-01T19:46:24.313Z,7.40
2023-05-01T19:48:52.591Z,8.80
2023-05-01T19:51:20.895Z,8.70
2023-05-01T19:53:49.175Z,8.50
2023-05-01T19:56:17.080Z,7.20
2023-05-01T19:58:45.916Z,6.90
2023-05-01T20:01:14.318Z,7.70
2023-05-01T20:03:43.256Z,7.70
2023-05-01T20:06:11.416Z,7.70
2023-05-01T20:08:40.578Z,9.20
2023-05-01T20:11:08.956Z,9.00
2023-05-01T20:13:36.986Z,8.70
2023-05-01T20:16:05.429Z,9.10
2023-05-01T20:18:33.593Z,8.70
2023-05-01T20:21:01.710Z,9.10
2023-05-01T20:23:31.003Z,8.90
2023-05-01T20:25:58.971Z,8.90
2023-05-01T20:28:27.020Z,9.50
2023-05-01T20:30:55.888Z,9.40
2023-05-01T20:33:24.692Z,9.30
2023-05-01T20:35:53.046Z,9.70
2023-05-01T20:38:22.029Z,9.10
2023-05-01T20:40:50.705Z,9.40
2023-05-01T20:43:18.725Z,10.50
2023-05-01T20:45:47.340Z,10.40
2023-05-01T20:48:15.494Z,10.40
2023-05-01T20:50:44.131Z,9.80
2023-05-01T20:53:12.077Z,9.70
2023-05-01T20:55:40.808Z,10.50
2023-05-01T20:58:08.918Z,9.10
2023-05-01T21:00:37.167Z,9.80
2023-05-01T21:03:05.305Z,10.00
2023-05-01T21:05:33.308Z,10.70
2023-05-01T21:08:02.526Z,11.30
2023-05-01T21:10:33.070Z,11.00
2023-05-01T21:13:01.396Z,10.10
2023-05-01T21:15:31.835Z,10.30
2023-05-01T21:18:03.283Z,10.80
2023-05-01T21:20:34.745Z,10.30
2023-05-01T21:23:03.026Z,11.40
2023-05-01T21:25:32.122Z,10.40
2023-05-01T21:28:05.619Z,10.50
2023-05-01T21:30:36.017Z,9.70
2023-05-01T21:33:14.523Z,9.30
2023-05-01T21:35:45.374Z,9.00
2023-05-01T21:38:13.648Z,10.60
2023-05-01T21:40:43.428Z,10.40
2023-05-01T21:43:11.647Z,11.30
2023-05-01T21:45:43.743Z,10.60
2023-05-01T21:48:14.933Z,11.30
2023-05-01T21:50:43.102Z,11.70
2023-05-01T21:53:11.107Z,12.30
2023-05-01T21:55:39.273Z,12.00
2023-05-01T21:58:07.452Z,11.90
2023-05-01T22:00:35.620Z,11.10
2023-05-01T22:03:07.103Z,11.80
2023-05-01T22:05:35.211Z,12.10
2023-05-01T22:08:03.253Z,12.80
2023-05-01T22:10:31.651Z,11.80
2023-05-01T22:12:59.604Z,11.30
2023-05-01T22:15:27.760Z,11.30
2023-05-01T22:17:56.761Z,12.20
2023-05-01T22:20:25.077Z,10.40
2023-05-01T22:22:53.211Z,11.40
2023-05-01T22:25:23.775Z,11.30
2023-05-01T22:27:51.830Z,10.40
2023-05-01T22:30:19.983Z,11.30
2023-05-01T22:32:47.965Z,10.20
2023-05-01T22:35:16.390Z,9.80
2023-05-01T22:37:44.346Z,10.50
2023-05-01T22:40:12.410Z,9.80
2023-05-01T22:42:41.150Z,10.70
2023-05-01T22:45:10.353Z,10.10
2023-05-01T22:47:38.679Z,9.80
2023-05-01T22:50:07.422Z,10.10
2023-05-01T22:52:35.519Z,9.30
2023-05-01T22:55:03.695Z,10.50
2023-05-01T22:57:31.676Z,11.10
2023-05-01T22:59:59.880Z,10.20
2023-05-01T23:02:28.278Z,11.20
2023-05-01T23:04:56.589Z,9.70
2023-05-01T23:07:24.708Z,9.70
2023-05-01T23:09:53.119Z,11.10
2023-05-01T23:12:25.754Z,10.70
2023-05-01T23:14:55.430Z,10.10
2023-05-01T23:17:23.461Z,9.90
2023-05-01T23:19:51.534Z,9.40
2023-05-01T23:22:19.875Z,9.30
2023-05-01T23:24:49.302Z,9.80
2023-05-01T23:27:19.195Z,9.60
2023-05-01T23:29:58.387Z,10.50
2023-05-01T23:32:30.111Z,10.80
2023-05-01T23:35:05.440Z,11.10
2023-05-01T23:37:33.592Z,11.70
2023-05-01T23:40:02.204Z,11.00
2023-05-01T23:42:31.111Z,11.30
2023-05-01T23:44:59.628Z,11.10
2023-05-01T23:47:27.920Z,11.10
2023-05-01T23:49:56.111Z,10.90
2023-05-01T23:52:24.253Z,10.80
2023-05-01T23:54:52.797Z,10.50
2023-05-01T23:57:20.958Z,10.40
2023-05-01T23:59:48.979Z,10.80
